Time;durP1;ratioP1;P1;durP2;ratioP2;P2;SDS_P1;SDS_P2;PMS_P1;PMS_P2;Temp;Humidity;BMP_temperature;BMP_pressure;BME280_temperature;BME280_humidity;BME280_pressure;Samples;Min_cycle;Max_cycle;Signal;HPM_P1;HPM_P2
2021/01/13 00:00:29;;;;;;;;;;;;;;;-0.89;97.39;92884.09;1061120;56;20178;-83
2021/01/13 00:01:30;;;;;;;;;;;;;;;-0.93;97.37;92881.41;1063374;55;20181;-83
2021/01/13 00:02:32;;;;;;;;;;;;;;;-0.90;97.21;92896.44;1063315;55;21122;-83
2021/01/13 00:03:33;;;;;;;;;;;;;;;-0.88;95.20;92881.13;1063326;55;20180;-84
2021/01/13 00:04:33;;;;;;;;;;;;;;;-0.86;95.45;92886.03;1065418;55;20153;-83
2021/01/13 00:05:36;;;;;;;;;;;;;;;-0.84;95.95;92883.78;1063324;55;20251;-83
2021/01/13 00:06:36;;;;;;;;;;;;;;;-0.88;96.37;92885.59;1063298;55;20154;-83
2021/01/13 00:07:37;;;;;;;;;;;;;;;-0.88;95.41;92886.38;1063322;55;20276;-82
2021/01/13 00:08:37;;;;;;;;;;;;;;;-0.85;94.92;92887.53;1063368;55;20259;-82
2021/01/13 00:09:38;;;;;;;;;;;;;;;-0.86;95.38;92889.41;1065469;55;20203;-85
2021/01/13 00:10:38;;;;;;;;;;;;;;;-0.88;95.91;92880.34;1063335;55;20180;-84
2021/01/13 00:11:39;;;;;;;;;;;;;;;-0.95;96.33;92882.87;1061151;56;20244;-83
2021/01/13 00:12:39;;;;;;;;;;;;;;;-0.96;96.49;92886.59;1063289;55;20169;-84
2021/01/13 00:13:40;;;;;;;;;;;;;;;-0.99;97.25;92882.78;1065459;55;20161;-82
2021/01/13 00:14:43;;;;;;;;;;;;;;;-0.91;97.37;92887.06;1063330;55;20261;-84
2021/01/13 00:15:43;;;;;;;;;;;;;;;-0.93;97.37;92897.13;1061235;55;20166;-83
2021/01/13 00:16:44;;;;;;;;;;;;;;;-0.91;97.12;92886.31;1061108;56;21088;-83
2021/01/13 00:17:47;;;;;;;;;;;;;;;-0.95;97.26;92888.88;1061093;56;20583;-83
2021/01/13 00:18:49;;;;;;;;;;;;;;;-0.97;97.33;92890.31;1063501;55;20259;-84
2021/01/13 00:19:49;;;;;;;;;;;;;;;-0.90;97.51;92885.19;1065548;55;20184;-84
2021/01/13 00:20:50;;;;;;;;;;;;;;;-0.88;97.00;92890.84;1063279;55;20161;-82
2021/01/13 00:21:51;;;;;;;;;;;;;;;-0.88;97.04;92894.25;1063358;55;20264;-83
2021/01/13 00:22:52;;;;;;;;;;;;;;;-0.84;97.13;92899.53;1065532;55;20158;-84
2021/01/13 00:23:52;;;;;;;;;;;;;;;-0.90;96.67;92891.19;1061219;56;20177;-82
2021/01/13 00:24:53;;;;;;;;;;;;;;;-0.89;96.40;92897.94;1061012;56;20201;-84
2021/01/13 00:25:53;;;;;;;;;;;;;;;-0.89;97.08;92902.44;1063364;55;20213;-83
2021/01/13 00:26:58;;;;;;;;;;;;;;;-0.96;96.44;92912.84;1063249;55;20146;-85
2021/01/13 00:27:59;;;;;;;;;;;;;;;-0.92;97.33;92895.25;1065702;55;20180;-81
2021/01/13 00:28:59;;;;;;;;;;;;;;;-0.98;96.87;92902.66;1063180;55;20153;-83
2021/01/13 00:30:00;;;;;;;;;;;;;;;-0.90;96.68;92906.94;1063370;55;20181;-85
2021/01/13 00:31:01;;;;;;;;;;;;;;;-0.92;97.27;92911.78;1067560;55;20256;-83
2021/01/13 00:32:04;;;;;;;;;;;;;;;-0.92;97.73;92911.00;1063225;55;20208;-82
2021/01/13 00:33:06;;;;;;;;;;;;;;;-0.95;96.68;92904.59;1063335;55;20184;-84
2021/01/13 00:34:10;;;;;;;;;;;;;;;-0.92;97.08;92911.00;1065395;55;20191;-84
2021/01/13 00:35:12;;;;;;;;;;;;;;;-0.94;97.27;92906.13;1063203;55;20181;-83
2021/01/13 00:36:24;;;;;;;;;;;;;;;-0.94;96.52;92905.34;1061100;55;20619;-84
2021/01/13 00:37:25;;;;;;;;;;;;;;;-0.81;95.22;92909.34;1063574;55;20192;-83
2021/01/13 00:38:25;;;;;;;;;;;;;;;-0.82;94.99;92907.81;1063271;55;20652;-84
2021/01/13 00:39:26;;;;;;;;;;;;;;;-0.82;93.84;92905.97;1061143;56;20178;-83
2021/01/13 00:40:27;;;;;;;;;;;;;;;-0.83;94.19;92907.06;1060920;55;20151;-83
2021/01/13 00:41:27;;;;;;;;;;;;;;;-0.93;95.39;92902.38;1065483;55;20170;-84
2021/01/13 00:42:30;;;;;;;;;;;;;;;-0.89;95.58;92915.56;1065397;55;20216;-84
2021/01/13 00:43:32;;;;;;;;;;;;;;;-0.92;95.34;92911.78;1061234;56;20185;-84
2021/01/13 00:44:32;;;;;;;;;;;;;;;-0.93;95.55;92912.13;1061094;56;20595;-84
2021/01/13 00:45:33;;;;;;;;;;;;;;;-0.94;95.62;92910.59;1063182;55;20158;-82
2021/01/13 00:46:40;;;;;;;;;;;;;;;-0.95;95.70;92922.97;1063226;55;20642;-83
2021/01/13 00:47:41;;;;;;;;;;;;;;;-0.93;94.17;92918.13;1061426;56;20286;-85
2021/01/13 00:48:43;;;;;;;;;;;;;;;-1.05;95.05;92920.91;1063395;55;20247;-84
2021/01/13 00:49:44;;;;;;;;;;;;;;;-1.07;95.88;92912.63;1063197;55;20247;-83
2021/01/13 00:50:44;;;;;;;;;;;;;;;-0.99;96.09;92914.28;1061001;56;21072;-83
2021/01/13 00:51:44;;;;;;;;;;;;;;;-0.96;94.67;92920.69;1063289;55;20154;-85
2021/01/13 00:52:49;;;;;;;;;;;;;;;-1.00;95.02;92922.50;1065610;55;20273;-84
2021/01/13 00:53:49;;;;;;;;;;;;;;;-0.99;94.87;92922.16;1067658;55;20216;-83
2021/01/13 00:54:50;;;;;;;;;;;;;;;-0.96;95.70;92918.06;1065435;55;20161;-84
2021/01/13 00:55:50;;;;;;;;;;;;;;;-1.00;96.19;92912.00;1063376;55;20162;-84
2021/01/13 00:56:51;;;;;;;;;;;;;;;-1.02;95.90;92923.59;1065388;55;20181;-84
2021/01/13 00:57:51;;;;;;;;;;;;;;;-1.09;96.33;92926.09;1063180;55;20178;-83
2021/01/13 00:58:52;;;;;;;;;;;;;;;-1.08;96.07;92916.34;1063177;55;20185;-83
2021/01/13 00:59:52;;;;;;;;;;;;;;;-1.15;96.86;92922.22;1065367;55;20158;-83
2021/01/13 01:00:53;;;;;;;;;;;;;;;-1.15;96.18;92926.69;1065412;55;20302;-86
2021/01/13 01:01:53;;;;;;;;;;;;;;;-1.06;96.48;92925.38;1063189;55;20161;-83
2021/01/13 01:02:54;;;;;;;;;;;;;;;-1.10;96.03;92934.28;1063200;55;20169;-84
2021/01/13 01:03:56;;;;;;;;;;;;;;;-1.11;96.17;92923.03;1067815;55;20155;-84
2021/01/13 01:04:57;;;;;;;;;;;;;;;-1.11;96.52;92924.91;1065331;55;20205;-83
2021/01/13 01:05:58;;;;;;;;;;;;;;;-1.08;96.59;92927.59;1063310;55;20184;-83
2021/01/13 01:07:02;;;;;;;;;;;;;;;-1.10;96.62;92931.66;1061130;56;20260;-83
2021/01/13 01:08:03;;;;;;;;;;;;;;;-1.14;97.14;92926.38;1059132;56;20725;-82
2021/01/13 01:09:05;;;;;;;;;;;;;;;-1.09;95.92;92928.72;1063204;55;20188;-85
2021/01/13 01:10:06;;;;;;;;;;;;;;;-1.12;96.32;92926.03;1065398;55;20196;-83
2021/01/13 01:11:07;;;;;;;;;;;;;;;-1.14;96.90;92929.00;1063264;55;20250;-84
2021/01/13 01:12:10;;;;;;;;;;;;;;;-1.11;96.83;92920.41;1063360;55;20166;-87
2021/01/13 01:13:12;;;;;;;;;;;;;;;-1.11;96.59;92922.28;1061182;56;20603;-84
2021/01/13 01:14:12;;;;;;;;;;;;;;;-1.14;96.69;92920.34;1061007;56;20170;-82
2021/01/13 01:15:13;;;;;;;;;;;;;;;-1.17;96.83;92921.06;1063316;55;20154;-84
2021/01/13 01:16:14;;;;;;;;;;;;;;;-1.17;97.36;92923.69;1063225;55;20252;-84
2021/01/13 01:17:15;;;;;;;;;;;;;;;-1.14;96.70;92923.75;1063191;55;20162;-83
2021/01/13 01:18:15;;;;;;;;;;;;;;;-1.11;96.71;92923.03;1063176;55;20180;-83
2021/01/13 01:19:16;;;;;;;;;;;;;;;-1.11;96.39;92925.66;1065299;55;20169;-83
2021/01/13 01:20:17;;;;;;;;;;;;;;;-1.14;96.47;92926.38;1061052;56;20179;-84
2021/01/13 01:21:18;;;;;;;;;;;;;;;-1.12;96.80;92926.03;1061136;56;20595;-83
2021/01/13 01:22:18;;;;;;;;;;;;;;;-1.19;96.42;92921.38;1065438;55;20606;-83
2021/01/13 01:23:21;;;;;;;;;;;;;;;-1.14;96.82;92928.22;1063161;55;20237;-84
2021/01/13 01:24:21;;;;;;;;;;;;;;;-1.13;96.66;92930.50;1063227;55;20165;-84
2021/01/13 01:25:22;;;;;;;;;;;;;;;-1.16;96.35;92931.19;1065415;55;20254;-84
2021/01/13 01:26:23;;;;;;;;;;;;;;;-1.19;96.64;92926.63;1063236;55;20184;-83
2021/01/13 01:27:24;;;;;;;;;;;;;;;-1.23;96.62;92931.06;1063099;55;20181;-83
2021/01/13 01:28:24;;;;;;;;;;;;;;;-1.18;96.11;92932.66;1063125;55;20594;-84
2021/01/13 01:29:25;;;;;;;;;;;;;;;-1.26;96.50;92937.00;1063170;55;20591;-83
2021/01/13 01:30:27;;;;;;;;;;;;;;;-1.22;96.62;92932.59;1065287;55;20184;-82
2021/01/13 01:31:28;;;;;;;;;;;;;;;-1.20;96.63;92932.22;1061139;56;20195;-83
2021/01/13 01:32:28;;;;;;;;;;;;;;;-1.30;96.92;92936.94;1063309;55;21103;-84
2021/01/13 01:33:31;;;;;;;;;;;;;;;-1.23;96.38;92936.28;1063251;55;20201;-84
2021/01/13 01:34:31;;;;;;;;;;;;;;;-1.26;96.34;92937.00;1061006;56;20580;-82
2021/01/13 01:35:32;;;;;;;;;;;;;;;-1.29;96.35;92935.06;1061096;56;21081;-83
2021/01/13 01:36:33;;;;;;;;;;;;;;;-1.28;96.47;92937.31;1058634;56;20163;-83
2021/01/13 01:37:34;;;;;;;;;;;;;;;-1.32;95.60;92939.16;1061076;56;20244;-83
2021/01/13 01:38:35;;;;;;;;;;;;;;;-1.31;95.80;92945.16;1063241;55;20199;-85
2021/01/13 01:39:37;;;;;;;;;;;;;;;-1.38;96.02;92942.37;1063189;55;20654;-84
2021/01/13 01:40:39;;;;;;;;;;;;;;;-1.36;95.70;92945.41;1061223;56;20184;-83
2021/01/13 01:41:44;;;;;;;;;;;;;;;-1.39;95.85;92939.00;1061147;56;20208;-84
2021/01/13 01:42:48;;;;;;;;;;;;;;;-1.46;95.60;92946.72;1061082;56;21127;-84
2021/01/13 01:43:49;;;;;;;;;;;;;;;-1.46;96.27;92938.09;1063330;55;20639;-82
2021/01/13 01:44:52;;;;;;;;;;;;;;;-1.47;96.07;92949.69;1063123;55;20177;-83
2021/01/13 01:45:53;;;;;;;;;;;;;;;-1.46;95.32;92946.72;1059122;56;20290;-83
2021/01/13 01:46:55;;;;;;;;;;;;;;;-1.49;94.79;92947.41;1061059;56;20244;-83
2021/01/13 01:48:02;;;;;;;;;;;;;;;-1.51;95.02;92952.22;1065601;55;20153;-82
2021/01/13 01:49:04;;;;;;;;;;;;;;;-1.58;95.49;92949.44;1063211;55;20184;-83
2021/01/13 01:50:07;;;;;;;;;;;;;;;-1.62;96.03;92951.25;1063178;55;20637;-83
2021/01/13 01:51:09;;;;;;;;;;;;;;;-1.64;95.37;92946.34;1063244;55;20184;-83
2021/01/13 01:52:15;;;;;;;;;;;;;;;-1.63;95.84;92950.47;1061144;56;20158;-84
2021/01/13 01:53:31;;;;;;;;;;;;;;;-1.62;95.74;92952.03;1062922;55;20279;-82
2021/01/13 01:54:35;;;;;;;;;;;;;;;-1.68;95.80;92947.38;1062232;55;20248;-83
2021/01/13 01:55:40;;;;;;;;;;;;;;;-1.71;95.89;92948.84;1063153;55;20189;-82
2021/01/13 01:56:42;;;;;;;;;;;;;;;-1.70;96.33;92942.47;1061216;56;20641;-82
2021/01/13 01:57:43;;;;;;;;;;;;;;;-1.63;96.49;92941.84;1061074;56;20275;-85
2021/01/13 01:58:48;;;;;;;;;;;;;;;-1.68;96.18;92945.50;1061700;55;20712;-83
2021/01/13 02:00:00;;;;;;;;;;;;;;;-1.72;95.76;92942.06;1061102;56;20166;-83
2021/01/13 02:01:02;;;;;;;;;;;;;;;-1.72;96.31;92952.53;1063556;55;20185;-83
2021/01/13 02:02:08;;;;;;;;;;;;;;;-1.73;96.21;92956.25;1061011;56;20256;-84
2021/01/13 02:03:13;;;;;;;;;;;;;;;-1.84;95.60;92958.66;1061079;56;20658;-82
2021/01/13 02:04:16;;;;;;;;;;;;;;;-1.83;96.06;92962.78;1059203;56;20158;-84
2021/01/13 02:05:18;;;;;;;;;;;;;;;-1.83;96.33;92954.19;1061061;56;20158;-83
2021/01/13 02:06:19;;;;;;;;;;;;;;;-1.82;95.69;92955.69;1061071;56;20204;-84
2021/01/13 02:07:28;;;;;;;;;;;;;;;-1.85;95.80;92953.75;1063252;56;20169;-83
2021/01/13 02:08:35;;;;;;;;;;;;;;;-1.90;95.48;92962.62;1063224;56;20730;-83
2021/01/13 02:09:38;;;;;;;;;;;;;;;-1.86;95.81;92957.47;1061239;56;20213;-83
2021/01/13 02:10:40;;;;;;;;;;;;;;;-1.90;96.02;92944.28;1061079;56;20162;-85
2021/01/13 02:11:44;;;;;;;;;;;;;;;-1.96;96.08;92955.38;1063336;55;20192;-84
2021/01/13 02:12:50;;;;;;;;;;;;;;;-1.96;96.44;92958.00;1060897;56;20303;-83
2021/01/13 02:13:51;;;;;;;;;;;;;;;-2.00;96.34;92954.53;1059215;56;20263;-84
2021/01/13 02:14:51;;;;;;;;;;;;;;;-1.98;96.24;92960.19;1060903;56;20181;-82
2021/01/13 02:15:52;;;;;;;;;;;;;;;-2.07;95.68;92963.75;1060947;56;20151;-83
2021/01/13 02:16:54;;;;;;;;;;;;;;;-2.06;96.41;92964.53;1060943;56;20312;-83
2021/01/13 02:17:57;;;;;;;;;;;;;;;-2.12;96.36;92960.63;1058910;56;20158;-83
2021/01/13 02:18:59;;;;;;;;;;;;;;;-2.11;95.83;92964.75;1061206;55;20162;-82
2021/01/13 02:20:03;;;;;;;;;;;;;;;-2.14;96.01;92971.44;1065226;55;20189;-82
2021/01/13 02:21:04;;;;;;;;;;;;;;;-2.13;95.99;92964.34;1063084;56;20185;-84
2021/01/13 02:22:10;;;;;;;;;;;;;;;-2.14;96.13;92975.94;1058764;56;20163;-83
2021/01/13 02:23:15;;;;;;;;;;;;;;;-2.17;96.61;92966.87;1059353;56;20569;-83
2021/01/13 02:24:48;;;;;;;;;;;;;;;-2.09;96.88;92967.81;1063173;55;20162;-82
2021/01/13 02:25:49;;;;;;;;;;;;;;;-2.12;96.77;92976.34;1056515;56;20194;-83
2021/01/13 02:27:04;;;;;;;;;;;;;;;-2.13;96.91;92980.81;1058974;56;20150;-83
2021/01/13 02:28:11;;;;;;;;;;;;;;;-2.07;96.98;92970.84;1061486;56;20211;-84
2021/01/13 02:29:15;;;;;;;;;;;;;;;-2.15;96.30;92975.19;1059092;56;20197;-82
2021/01/13 02:30:17;;;;;;;;;;;;;;;-2.20;96.52;92978.03;1059069;56;20223;-84
2021/01/13 02:31:21;;;;;;;;;;;;;;;-2.14;95.56;92975.94;1063214;55;20165;-83
2021/01/13 02:32:29;;;;;;;;;;;;;;;-2.22;95.73;92974.25;1063151;56;20153;-83
2021/01/13 02:33:30;;;;;;;;;;;;;;;-2.23;95.90;92970.88;1061246;56;20180;-82
2021/01/13 02:34:42;;;;;;;;;;;;;;;-2.29;95.10;92974.81;1061239;56;20174;-83
2021/01/13 02:35:59;;;;;;;;;;;;;;;-2.34;96.18;92975.09;1063373;55;20189;-83
2021/01/13 02:37:08;;;;;;;;;;;;;;;-2.35;96.07;92976.19;1061706;55;20163;-83
2021/01/13 02:38:12;;;;;;;;;;;;;;;-2.36;95.33;92974.66;1061540;56;20623;-83
2021/01/13 02:39:17;;;;;;;;;;;;;;;-2.40;94.55;92973.81;1063444;55;20270;-83
2021/01/13 02:40:19;;;;;;;;;;;;;;;-2.40;95.18;92979.81;1065349;55;20193;-83
2021/01/13 02:41:27;;;;;;;;;;;;;;;-2.36;94.31;92978.03;1063099;56;20282;-82
2021/01/13 02:42:32;;;;;;;;;;;;;;;-2.35;93.09;92974.31;1063464;55;20251;-83
2021/01/13 02:43:48;;;;;;;;;;;;;;;-2.39;93.54;92980.56;1065221;55;20676;-83
2021/01/13 02:45:06;;;;;;;;;;;;;;;-2.43;94.41;92982.34;1063136;56;20189;-83
2021/01/13 02:46:12;;;;;;;;;;;;;;;-2.47;93.54;92976.25;1061082;56;20190;-84
2021/01/13 02:47:19;;;;;;;;;;;;;;;-2.49;94.43;92981.84;1059076;56;20182;-83
2021/01/13 02:48:20;;;;;;;;;;;;;;;-2.53;93.62;92979.13;1063604;55;21102;-83
2021/01/13 02:50:55;;;;;;;;;;;;;;;-2.67;94.97;92984.00;1063456;55;20180;-84
2021/01/13 02:51:56;;;;;;;;;;;;;;;-2.67;96.21;92991.84;1063335;55;20185;-83
2021/01/13 02:53:09;;;;;;;;;;;;;;;-2.64;96.69;92993.78;1063526;55;20255;-84
2021/01/13 02:54:24;;;;;;;;;;;;;;;-2.71;96.55;92998.84;1063438;55;20181;-83
2021/01/13 02:55:27;;;;;;;;;;;;;;;-2.70;96.39;92997.00;1061850;56;20259;-83
2021/01/13 02:56:32;;;;;;;;;;;;;;;-2.71;95.28;92998.09;1063610;55;20213;-83
2021/01/13 02:57:37;;;;;;;;;;;;;;;-2.73;95.38;92998.41;1063379;55;20184;-84
2021/01/13 02:58:38;;;;;;;;;;;;;;;-2.74;95.34;92998.75;1059758;56;20182;-83
2021/01/13 02:59:38;;;;;;;;;;;;;;;-2.78;95.52;93003.87;1061298;55;20209;-83
2021/01/13 03:00:42;;;;;;;;;;;;;;;-2.80;95.60;92993.00;1065645;55;20161;-83
2021/01/13 03:01:43;;;;;;;;;;;;;;;-2.78;95.89;93007.25;1065554;55;20161;-83
2021/01/13 03:02:49;;;;;;;;;;;;;;;-2.80;96.93;93001.63;1063500;55;20308;-84
2021/01/13 03:03:50;;;;;;;;;;;;;;;-2.90;95.11;93003.94;1063713;55;20347;-84
2021/01/13 03:04:51;;;;;;;;;;;;;;;-3.00;95.22;93005.19;1065502;55;20333;-83
2021/01/13 03:05:51;;;;;;;;;;;;;;;-3.07;94.86;93003.16;1065633;55;20254;-83
2021/01/13 03:06:52;;;;;;;;;;;;;;;-3.08;94.44;93009.44;1063326;55;20669;-83
2021/01/13 03:07:55;;;;;;;;;;;;;;;-3.16;93.78;93007.75;1061324;56;20158;-83
2021/01/13 03:09:07;;;;;;;;;;;;;;;-3.10;96.17;93014.25;1065633;55;20626;-83
2021/01/13 03:10:11;;;;;;;;;;;;;;;-3.17;95.75;93011.44;1061382;56;20201;-83
2021/01/13 03:11:14;;;;;;;;;;;;;;;-3.15;95.95;93011.13;1059368;56;20990;-82
2021/01/13 03:12:15;;;;;;;;;;;;;;;-3.17;96.21;93008.06;1061319;56;20650;-82
2021/01/13 03:13:15;;;;;;;;;;;;;;;-3.24;96.37;93006.03;1061220;56;20166;-83
2021/01/13 03:14:19;;;;;;;;;;;;;;;-3.27;95.96;93009.31;1061434;56;20259;-83
2021/01/13 03:15:19;;;;;;;;;;;;;;;-3.25;96.54;93027.25;1063556;55;20188;-84
2021/01/13 03:16:23;;;;;;;;;;;;;;;-3.24;96.38;93026.19;1061261;56;20255;-84
2021/01/13 03:17:30;;;;;;;;;;;;;;;-3.28;96.91;93020.84;1059361;56;20193;-84
2021/01/13 03:18:41;;;;;;;;;;;;;;;-3.26;97.03;93013.44;1063620;55;20183;-83
2021/01/13 03:19:47;;;;;;;;;;;;;;;-3.33;95.88;93021.09;1065882;55;20242;-83
2021/01/13 03:20:54;;;;;;;;;;;;;;;-3.32;96.45;93017.38;1063459;55;20169;-83
2021/01/13 03:21:58;;;;;;;;;;;;;;;-3.34;96.13;93022.16;1063594;55;20688;-83
2021/01/13 03:23:09;;;;;;;;;;;;;;;-3.31;95.21;93026.72;1063358;55;20185;-83
2021/01/13 03:24:26;;;;;;;;;;;;;;;-3.27;94.99;93027.59;1063788;55;20169;-84
2021/01/13 03:25:28;;;;;;;;;;;;;;;-3.24;94.61;93029.56;1063317;55;20667;-83
2021/01/13 03:26:30;;;;;;;;;;;;;;;-3.25;95.06;93022.78;1063600;55;20161;-84
2021/01/13 03:27:33;;;;;;;;;;;;;;;-3.24;96.52;93029.56;1063360;55;20170;-85
2021/01/13 03:28:35;;;;;;;;;;;;;;;-3.23;96.29;93031.06;1061197;56;20181;-82
2021/01/13 03:29:37;;;;;;;;;;;;;;;-3.28;95.72;93027.94;1063422;55;20666;-83
2021/01/13 03:30:38;;;;;;;;;;;;;;;-3.31;95.16;93029.34;1063511;55;20165;-84
2021/01/13 03:31:51;;;;;;;;;;;;;;;-3.27;95.76;93032.81;1059199;56;20186;-83
2021/01/13 03:32:52;;;;;;;;;;;;;;;-3.33;96.16;93034.16;1061787;56;20158;-84
2021/01/13 03:33:52;;;;;;;;;;;;;;;-3.31;96.72;93024.12;1061263;56;20238;-83
2021/01/13 03:34:56;;;;;;;;;;;;;;;-3.37;94.59;93026.22;1059152;56;20256;-83
2021/01/13 03:36:08;;;;;;;;;;;;;;;-3.48;94.76;93021.75;1059102;56;20249;-83
2021/01/13 03:37:22;;;;;;;;;;;;;;;-3.41;94.88;93024.59;1062083;55;20571;-83
2021/01/13 03:38:23;;;;;;;;;;;;;;;-3.51;94.12;93025.81;1063766;55;20161;-84
2021/01/13 03:39:24;;;;;;;;;;;;;;;-3.55;94.07;93030.94;1065590;55;20180;-83
2021/01/13 03:40:27;;;;;;;;;;;;;;;-3.58;94.75;93025.59;1065496;55;20304;-84
2021/01/13 03:41:28;;;;;;;;;;;;;;;-3.69;93.65;93027.87;1063508;55;20199;-83
2021/01/13 03:42:34;;;;;;;;;;;;;;;-3.78;93.38;93027.22;1063463;55;20181;-82
2021/01/13 03:43:35;;;;;;;;;;;;;;;-3.77;94.18;93022.78;1061379;56;20706;-84
2021/01/13 03:44:40;;;;;;;;;;;;;;;-3.85;94.54;93029.66;1063545;55;20262;-82
2021/01/13 03:45:40;;;;;;;;;;;;;;;-3.88;94.42;93033.66;1063445;55;20258;-83
2021/01/13 03:46:41;;;;;;;;;;;;;;;-3.95;94.98;93038.69;1063437;55;20166;-84
2021/01/13 03:47:47;;;;;;;;;;;;;;;-3.91;95.55;93030.94;1065578;55;20674;-84
2021/01/13 03:48:48;;;;;;;;;;;;;;;-3.85;95.44;93022.56;1065695;55;20166;-83
2021/01/13 03:49:58;;;;;;;;;;;;;;;-3.92;94.37;93029.41;1063448;55;20605;-83
2021/01/13 03:51:01;;;;;;;;;;;;;;;-3.96;94.33;93031.91;1061626;56;20162;-83
2021/01/13 03:52:04;;;;;;;;;;;;;;;-4.11;94.30;93024.75;1059212;56;20300;-84
2021/01/13 03:53:07;;;;;;;;;;;;;;;-4.27;93.83;93029.06;1061482;55;20158;-83
2021/01/13 03:54:11;;;;;;;;;;;;;;;-4.26;94.28;93026.13;1063385;55;20586;-82
2021/01/13 03:55:15;;;;;;;;;;;;;;;-4.28;93.62;93030.16;1063489;55;20176;-84
2021/01/13 03:56:23;;;;;;;;;;;;;;;-4.29;93.83;93032.00;1063360;55;20177;-84
2021/01/13 03:57:36;;;;;;;;;;;;;;;-4.32;93.36;93030.81;1061380;56;20196;-83
2021/01/13 03:58:50;;;;;;;;;;;;;;;-4.39;93.31;93035.03;1059944;56;20268;-83
2021/01/13 03:59:55;;;;;;;;;;;;;;;-4.39;93.21;93035.81;1063653;55;20165;-84
2021/01/13 04:01:00;;;;;;;;;;;;;;;-4.43;93.00;93034.94;1065795;55;20169;-83
2021/01/13 04:02:02;;;;;;;;;;;;;;;-4.45;93.37;93031.12;1063460;55;20162;-84
2021/01/13 04:03:12;;;;;;;;;;;;;;;-4.50;92.77;93023.50;1061524;56;20189;-82
2021/01/13 04:04:24;;;;;;;;;;;;;;;-4.53;93.34;93027.50;1061679;56;20323;-84
2021/01/13 04:05:29;;;;;;;;;;;;;;;-4.57;93.17;93024.00;1063472;55;20248;-83
2021/01/13 04:06:40;;;;;;;;;;;;;;;-4.67;93.28;93030.41;1061579;56;20157;-84
2021/01/13 04:07:41;;;;;;;;;;;;;;;-4.67;93.28;93033.00;1059520;56;20166;-84
2021/01/13 04:08:43;;;;;;;;;;;;;;;-4.74;93.28;93038.00;1061408;55;20626;-84
2021/01/13 04:09:44;;;;;;;;;;;;;;;-4.77;93.61;93030.06;1061319;56;20671;-83
2021/01/13 04:10:45;;;;;;;;;;;;;;;-4.70;93.59;93040.72;1061346;55;20158;-83
2021/01/13 04:11:49;;;;;;;;;;;;;;;-4.76;93.45;93036.78;1061201;56;20154;-82
2021/01/13 04:12:50;;;;;;;;;;;;;;;-4.88;93.33;93034.91;1061380;56;20579;-82
2021/01/13 04:13:51;;;;;;;;;;;;;;;-4.89;92.79;93036.00;1063463;55;20154;-83
2021/01/13 04:14:54;;;;;;;;;;;;;;;-4.90;92.96;93040.44;1065781;55;20188;-83
2021/01/13 04:15:59;;;;;;;;;;;;;;;-4.87;92.98;93034.59;1065806;55;20256;-82
2021/01/13 04:17:00;;;;;;;;;;;;;;;-4.81;93.39;93041.13;1063242;55;20225;-83
2021/01/13 04:18:05;;;;;;;;;;;;;;;-4.88;93.36;93040.13;1063461;55;20672;-83
2021/01/13 04:19:09;;;;;;;;;;;;;;;-4.91;93.33;93046.00;1063283;55;20303;-83
2021/01/13 04:20:11;;;;;;;;;;;;;;;-4.89;92.94;93038.59;1059068;56;20250;-83
2021/01/13 04:21:12;;;;;;;;;;;;;;;-4.85;93.35;93039.47;1061186;56;20150;-84
2021/01/13 04:22:13;;;;;;;;;;;;;;;-4.76;93.24;93029.72;1061354;56;20162;-84
2021/01/13 04:23:15;;;;;;;;;;;;;;;-4.72;92.53;93029.84;1063337;55;21114;-85
2021/01/13 04:24:16;;;;;;;;;;;;;;;-4.74;92.60;93030.19;1063254;55;20725;-84
2021/01/13 04:25:17;;;;;;;;;;;;;;;-4.75;92.60;93027.87;1061206;56;20177;-83
2021/01/13 04:26:17;;;;;;;;;;;;;;;-4.77;93.08;93037.88;1063435;55;20173;-84
2021/01/13 04:27:19;;;;;;;;;;;;;;;-4.81;94.62;93030.69;1063540;55;20197;-83
2021/01/13 04:28:20;;;;;;;;;;;;;;;-4.79;94.30;93022.53;1063631;55;20161;-84
2021/01/13 04:29:23;;;;;;;;;;;;;;;-4.75;93.98;93026.03;1063466;55;20247;-83
2021/01/13 04:30:27;;;;;;;;;;;;;;;-4.70;94.08;93027.69;1061269;56;20276;-84
2021/01/13 04:31:27;;;;;;;;;;;;;;;-4.68;94.67;93023.69;1063621;55;20162;-83
2021/01/13 04:32:28;;;;;;;;;;;;;;;-4.66;95.23;93021.50;1061413;56;20955;-84
2021/01/13 04:33:30;;;;;;;;;;;;;;;-4.62;95.56;93029.44;1061457;56;20177;-84
2021/01/13 04:34:31;;;;;;;;;;;;;;;-4.63;95.84;93030.53;1061269;56;20182;-83
2021/01/13 04:35:31;;;;;;;;;;;;;;;-4.60;96.01;93022.84;1061490;56;20159;-83
2021/01/13 04:36:35;;;;;;;;;;;;;;;-4.52;95.72;93021.22;1063506;55;20201;-83
2021/01/13 04:37:39;;;;;;;;;;;;;;;-4.48;94.99;93024.69;1063677;55;20711;-84
2021/01/13 04:38:40;;;;;;;;;;;;;;;-4.50;94.46;93031.31;1061678;56;20166;-83
2021/01/13 04:39:40;;;;;;;;;;;;;;;-4.51;94.30;93022.75;1061429;56;20250;-84
2021/01/13 04:40:47;;;;;;;;;;;;;;;-4.47;93.65;93035.91;1058974;56;20155;-83
2021/01/13 04:41:59;;;;;;;;;;;;;;;-4.53;94.67;93035.31;1059445;56;20218;-84
2021/01/13 04:43:07;;;;;;;;;;;;;;;-4.52;94.86;93033.47;1062238;55;20162;-83
2021/01/13 04:44:12;;;;;;;;;;;;;;;-4.47;94.51;93025.47;1063562;55;20166;-84
2021/01/13 04:45:22;;;;;;;;;;;;;;;-4.48;94.54;93029.91;1063390;55;20205;-83
2021/01/13 04:46:31;;;;;;;;;;;;;;;-4.57;95.01;93032.59;1061595;56;20166;-83
2021/01/13 04:47:48;;;;;;;;;;;;;;;-4.58;95.22;93035.53;1061372;56;20214;-83
2021/01/13 04:48:56;;;;;;;;;;;;;;;-4.64;96.45;93040.19;1061901;56;20170;-83
2021/01/13 04:49:59;;;;;;;;;;;;;;;-4.63;96.39;93046.94;1061453;56;21094;-83
2021/01/13 04:51:02;;;;;;;;;;;;;;;-4.64;97.22;93050.63;1061425;56;20163;-82
2021/01/13 04:52:09;;;;;;;;;;;;;;;-4.62;97.67;93043.25;1061147;56;20173;-82
2021/01/13 04:53:11;;;;;;;;;;;;;;;-4.64;96.63;93061.06;1061429;56;20202;-83
2021/01/13 04:54:17;;;;;;;;;;;;;;;-4.62;97.17;93061.50;1063635;55;20176;-84
2021/01/13 04:55:27;;;;;;;;;;;;;;;-4.60;97.09;93058.59;1065612;55;20165;-83
2021/01/13 04:56:29;;;;;;;;;;;;;;;-4.65;96.66;93062.16;1065193;55;20165;-85
2021/01/13 04:57:59;;;;;;;;;;;;;;;-4.64;96.41;93053.25;1063489;55;20690;-83
2021/01/13 04:59:19;;;;;;;;;;;;;;;-4.64;95.91;93053.25;1057781;56;20638;-83
2021/01/13 05:00:39;;;;;;;;;;;;;;;-4.61;95.10;93065.66;1056173;56;20179;-83
2021/01/13 05:02:01;;;;;;;;;;;;;;;-4.60;94.24;93061.19;1060506;56;20163;-83
2021/01/13 05:03:05;;;;;;;;;;;;;;;-4.67;94.38;93064.31;1059774;56;20157;-82
2021/01/13 05:04:22;;;;;;;;;;;;;;;-4.68;94.16;93062.78;1057001;56;20167;-83
2021/01/13 05:05:29;;;;;;;;;;;;;;;-4.69;94.39;93063.13;1060273;56;20184;-83
2021/01/13 05:06:50;;;;;;;;;;;;;;;-4.74;94.37;93066.69;1061391;56;20170;-83
2021/01/13 05:08:11;;;;;;;;;;;;;;;-4.67;94.39;93063.53;1064252;55;20325;-82
2021/01/13 05:09:15;;;;;;;;;;;;;;;-4.78;94.61;93071.00;1058674;56;20568;-83
2021/01/13 05:10:16;;;;;;;;;;;;;;;-4.73;94.63;93063.00;1061183;55;20189;-83
2021/01/13 05:11:17;;;;;;;;;;;;;;;-4.93;93.98;93066.38;1065295;55;20181;-83
2021/01/13 05:12:25;;;;;;;;;;;;;;;-4.86;94.95;93072.59;1061076;56;20174;-83
2021/01/13 05:13:32;;;;;;;;;;;;;;;-4.82;95.28;93070.88;1061556;55;21010;-84
2021/01/13 05:14:33;;;;;;;;;;;;;;;-4.78;95.10;93070.22;1063176;55;20161;-83
2021/01/13 05:15:33;;;;;;;;;;;;;;;-4.79;95.02;93079.91;1063342;55;20256;-83
2021/01/13 05:16:54;;;;;;;;;;;;;;;-4.79;94.96;93081.75;1063262;55;20243;-83
2021/01/13 05:18:07;;;;;;;;;;;;;;;-4.80;94.88;93094.03;1060107;56;20181;-84
2021/01/13 05:19:18;;;;;;;;;;;;;;;-4.75;93.97;93086.00;1062120;55;20182;-83
2021/01/13 05:20:24;;;;;;;;;;;;;;;-4.70;94.12;93077.97;1066011;55;20586;-83
2021/01/13 05:21:26;;;;;;;;;;;;;;;-4.70;93.82;93080.59;1063155;55;20237;-82
2021/01/13 05:22:31;;;;;;;;;;;;;;;-4.68;94.14;93081.03;1063580;55;20616;-83
2021/01/13 05:23:32;;;;;;;;;;;;;;;-4.70;94.46;93080.59;1063421;55;20258;-83
2021/01/13 05:24:38;;;;;;;;;;;;;;;-4.61;94.17;93083.13;1061171;56;20650;-83
2021/01/13 05:25:52;;;;;;;;;;;;;;;-4.67;94.09;93081.78;1063806;55;20692;-82
2021/01/13 05:27:00;;;;;;;;;;;;;;;-4.58;94.41;93083.25;1061167;56;20163;-83
2021/01/13 05:28:04;;;;;;;;;;;;;;;-4.60;93.60;93074.22;1061391;56;20204;-83
2021/01/13 05:29:05;;;;;;;;;;;;;;;-4.63;94.04;93078.22;1063457;55;20185;-83
2021/01/13 05:30:08;;;;;;;;;;;;;;;-4.61;94.23;93081.28;1063338;55;20177;-82
2021/01/13 05:31:11;;;;;;;;;;;;;;;-4.65;95.12;93075.19;1061166;56;20181;-84
2021/01/13 05:32:12;;;;;;;;;;;;;;;-4.67;95.18;93095.59;1061301;56;20177;-83
2021/01/13 05:33:15;;;;;;;;;;;;;;;-4.73;95.23;93094.28;1061282;56;20639;-83
2021/01/13 05:34:17;;;;;;;;;;;;;;;-4.66;95.67;93085.91;1061209;56;20181;-83
2021/01/13 05:35:19;;;;;;;;;;;;;;;-4.65;95.59;93087.47;1059050;56;20620;-82